Terminal Aerodrome Forecast
Issued by NWS Missoula, MT

Home | Current Version | Previous Version | Text Only | Print | Product List | Glossary On
Versions: 1 2 3 4 5 6 7 8 9 10 11 12 13
000
FTUS45 KMSO 042339
TAFMSO
TAF
KMSO 042339Z 0500/0524 35008KT P6SM SCT100
     FM051400 30008KT P6SM BKN100
     FM052000 31012G20KT P6SM VCSH BKN100=

USA.gov is the U.S. government's official web portal to all federal, state and local government web resources and services.